sensor_id;sensor_type;location;lat;lon;timestamp;pressure;altitude;pressure_sealevel;temperature;humidity
56392;BME280;42289;53.582;9.714;2022-08-03T00:01:58;100982.78;;;19.32;100.00
56392;BME280;42289;53.582;9.714;2022-08-03T00:04:26;100986.19;;;19.34;100.00
56392;BME280;42289;53.582;9.714;2022-08-03T00:06:53;100942.72;;;19.51;100.00
56392;BME280;42289;53.582;9.714;2022-08-03T00:09:20;100944.16;;;19.44;100.00
56392;BME280;42289;53.582;9.714;2022-08-03T00:11:46;100909.06;;;19.55;100.00
56392;BME280;42289;53.582;9.714;2022-08-03T00:14:13;100914.34;;;19.55;100.00
56392;BME280;42289;53.582;9.714;2022-08-03T00:16:39;100932.69;;;19.56;100.00
56392;BME280;42289;53.582;9.714;2022-08-03T00:19:05;100933.03;;;19.52;100.00
56392;BME280;42289;53.582;9.714;2022-08-03T00:21:32;100942.84;;;19.49;100.00
56392;BME280;42289;53.582;9.714;2022-08-03T00:24:00;100912.03;;;19.50;100.00
56392;BME280;42289;53.582;9.714;2022-08-03T00:26:26;100886.06;;;19.57;100.00
56392;BME280;42289;53.582;9.714;2022-08-03T00:28:52;100883.66;;;19.54;100.00
56392;BME280;42289;53.582;9.714;2022-08-03T00:31:19;100889.75;;;19.54;100.00
56392;BME280;42289;53.582;9.714;2022-08-03T00:33:45;100904.13;;;19.50;100.00
56392;BME280;42289;53.582;9.714;2022-08-03T00:36:12;100941.72;;;19.41;100.00
56392;BME280;42289;53.582;9.714;2022-08-03T00:38:38;100926.75;;;19.41;100.00
56392;BME280;42289;53.582;9.714;2022-08-03T00:41:06;100883.03;;;19.50;100.00
56392;BME280;42289;53.582;9.714;2022-08-03T00:43:32;100876.81;;;19.51;100.00
56392;BME280;42289;53.582;9.714;2022-08-03T00:45:58;100883.03;;;19.50;100.00
56392;BME280;42289;53.582;9.714;2022-08-03T00:48:25;100898.84;;;19.39;100.00
56392;BME280;42289;53.582;9.714;2022-08-03T00:50:51;100895.13;;;19.41;100.00
56392;BME280;42289;53.582;9.714;2022-08-03T00:53:18;100906.84;;;19.37;100.00
56392;BME280;42289;53.582;9.714;2022-08-03T00:55:45;100897.03;;;19.39;100.00
56392;BME280;42289;53.582;9.714;2022-08-03T00:58:13;100895.38;;;19.38;100.00
56392;BME280;42289;53.582;9.714;2022-08-03T01:00:40;100886.59;;;19.38;100.00
56392;BME280;42289;53.582;9.714;2022-08-03T01:03:07;100875.94;;;19.39;100.00
56392;BME280;42289;53.582;9.714;2022-08-03T01:05:39;100873.66;;;19.35;100.00
56392;BME280;42289;53.582;9.714;2022-08-03T01:08:16;100916.91;;;19.32;100.00
56392;BME280;42289;53.582;9.714;2022-08-03T01:10:53;100917.00;;;19.30;100.00
56392;BME280;42289;53.582;9.714;2022-08-03T01:13:26;100898.31;;;19.33;100.00
56392;BME280;42289;53.582;9.714;2022-08-03T01:15:58;100874.47;;;19.35;100.00
56392;BME280;42289;53.582;9.714;2022-08-03T01:18:28;100868.50;;;19.33;100.00
56392;BME280;42289;53.582;9.714;2022-08-03T01:20:57;100837.84;;;19.43;100.00
56392;BME280;42289;53.582;9.714;2022-08-03T01:23:38;100855.47;;;19.43;100.00
56392;BME280;42289;53.582;9.714;2022-08-03T01:26:23;100830.22;;;19.52;100.00
56392;BME280;42289;53.582;9.714;2022-08-03T01:29:01;100852.59;;;19.46;100.00
56392;BME280;42289;53.582;9.714;2022-08-03T01:31:36;100848.06;;;19.48;100.00
56392;BME280;42289;53.582;9.714;2022-08-03T01:34:07;100852.09;;;19.41;100.00
56392;BME280;42289;53.582;9.714;2022-08-03T01:36:37;100849.13;;;19.45;100.00
56392;BME280;42289;53.582;9.714;2022-08-03T01:39:05;100869.72;;;19.40;100.00
56392;BME280;42289;53.582;9.714;2022-08-03T01:41:38;100873.31;;;19.39;100.00
56392;BME280;42289;53.582;9.714;2022-08-03T01:44:08;100885.28;;;19.32;100.00
56392;BME280;42289;53.582;9.714;2022-08-03T01:46:37;100889.59;;;19.33;100.00
56392;BME280;42289;53.582;9.714;2022-08-03T01:49:06;100894.34;;;19.28;100.00
56392;BME280;42289;53.582;9.714;2022-08-03T01:51:36;100891.72;;;19.28;100.00
56392;BME280;42289;53.582;9.714;2022-08-03T01:54:04;100879.50;;;19.27;100.00
56392;BME280;42289;53.582;9.714;2022-08-03T01:56:32;100866.56;;;19.35;100.00
56392;BME280;42289;53.582;9.714;2022-08-03T01:59:01;100870.75;;;19.26;100.00
56392;BME280;42289;53.582;9.714;2022-08-03T02:01:28;100891.97;;;19.25;100.00
56392;BME280;42289;53.582;9.714;2022-08-03T02:03:58;100863.69;;;19.27;100.00
56392;BME280;42289;53.582;9.714;2022-08-03T02:06:26;100850.50;;;19.27;100.00
56392;BME280;42289;53.582;9.714;2022-08-03T02:08:53;100890.38;;;19.22;100.00
56392;BME280;42289;53.582;9.714;2022-08-03T02:11:21;100894.81;;;19.22;100.00
56392;BME280;42289;53.582;9.714;2022-08-03T02:13:49;100916.56;;;19.12;100.00
56392;BME280;42289;53.582;9.714;2022-08-03T02:16:17;100934.72;;;19.04;100.00
56392;BME280;42289;53.582;9.714;2022-08-03T02:18:44;100962.81;;;18.92;100.00
56392;BME280;42289;53.582;9.714;2022-08-03T02:21:14;100965.44;;;18.92;100.00
56392;BME280;42289;53.582;9.714;2022-08-03T02:23:40;100976.38;;;18.86;100.00
56392;BME280;42289;53.582;9.714;2022-08-03T02:26:11;100967.47;;;18.89;100.00
56392;BME280;42289;53.582;9.714;2022-08-03T02:28:42;100979.13;;;18.85;100.00
56392;BME280;42289;53.582;9.714;2022-08-03T02:31:13;100982.19;;;18.78;100.00
56392;BME280;42289;53.582;9.714;2022-08-03T02:33:42;100981.59;;;18.75;100.00
56392;BME280;42289;53.582;9.714;2022-08-03T02:36:10;100998.84;;;18.66;100.00
56392;BME280;42289;53.582;9.714;2022-08-03T02:38:41;101028.97;;;18.62;100.00
56392;BME280;42289;53.582;9.714;2022-08-03T02:41:14;101025.72;;;18.58;100.00
56392;BME280;42289;53.582;9.714;2022-08-03T02:43:42;101029.94;;;18.61;100.00
56392;BME280;42289;53.582;9.714;2022-08-03T02:46:12;101060.91;;;18.57;100.00
56392;BME280;42289;53.582;9.714;2022-08-03T02:48:40;101051.72;;;18.50;100.00
56392;BME280;42289;53.582;9.714;2022-08-03T02:51:08;101058.78;;;18.49;100.00
56392;BME280;42289;53.582;9.714;2022-08-03T02:53:36;101049.97;;;18.51;100.00
56392;BME280;42289;53.582;9.714;2022-08-03T02:56:04;101062.59;;;18.45;100.00
56392;BME280;42289;53.582;9.714;2022-08-03T02:58:32;101077.94;;;18.39;100.00
56392;BME280;42289;53.582;9.714;2022-08-03T03:01:00;101090.28;;;18.38;100.00
56392;BME280;42289;53.582;9.714;2022-08-03T03:03:27;101116.59;;;18.38;100.00
56392;BME280;42289;53.582;9.714;2022-08-03T03:05:55;101129.41;;;18.30;100.00
56392;BME280;42289;53.582;9.714;2022-08-03T03:08:22;101131.19;;;18.29;100.00
56392;BME280;42289;53.582;9.714;2022-08-03T03:10:50;101130.88;;;18.21;100.00
56392;BME280;42289;53.582;9.714;2022-08-03T03:13:18;101145.06;;;18.19;100.00
56392;BME280;42289;53.582;9.714;2022-08-03T03:15:47;101159.25;;;18.16;100.00
56392;BME280;42289;53.582;9.714;2022-08-03T03:18:15;101182.00;;;18.17;100.00
56392;BME280;42289;53.582;9.714;2022-08-03T03:20:42;101196.09;;;18.16;100.00
56392;BME280;42289;53.582;9.714;2022-08-03T03:23:10;101202.41;;;18.13;100.00
56392;BME280;42289;53.582;9.714;2022-08-03T03:25:37;101199.50;;;18.18;100.00
56392;BME280;42289;53.582;9.714;2022-08-03T03:28:04;101196.09;;;18.16;100.00
56392;BME280;42289;53.582;9.714;2022-08-03T03:30:32;101205.28;;;18.23;100.00
56392;BME280;42289;53.582;9.714;2022-08-03T03:32:59;101196.19;;;18.14;100.00
56392;BME280;42289;53.582;9.714;2022-08-03T03:35:27;101208.91;;;18.08;100.00
56392;BME280;42289;53.582;9.714;2022-08-03T03:37:53;101208.47;;;18.01;100.00
56392;BME280;42289;53.582;9.714;2022-08-03T03:40:20;101229.03;;;17.94;100.00
56392;BME280;42289;53.582;9.714;2022-08-03T03:42:47;101269.91;;;17.86;100.00
56392;BME280;42289;53.582;9.714;2022-08-03T03:45:13;101273.72;;;17.80;100.00
56392;BME280;42289;53.582;9.714;2022-08-03T03:47:41;101290.63;;;17.76;100.00
56392;BME280;42289;53.582;9.714;2022-08-03T03:50:09;101297.50;;;17.78;100.00
56392;BME280;42289;53.582;9.714;2022-08-03T03:52:36;101299.66;;;17.72;100.00
56392;BME280;42289;53.582;9.714;2022-08-03T03:55:02;101312.22;;;17.66;100.00
56392;BME280;42289;53.582;9.714;2022-08-03T03:57:29;101314.22;;;17.63;100.00
56392;BME280;42289;53.582;9.714;2022-08-03T03:59:55;101353.56;;;17.64;100.00
56392;BME280;42289;53.582;9.714;2022-08-03T04:02:22;101354.69;;;17.60;100.00
56392;BME280;42289;53.582;9.714;2022-08-03T04:04:50;101344.75;;;17.65;100.00
56392;BME280;42289;53.582;9.714;2022-08-03T04:07:39;101330.19;;;17.74;100.00
56392;BME280;42289;53.582;9.714;2022-08-03T04:10:30;101332.91;;;17.73;100.00
56392;BME280;42289;53.582;9.714;2022-08-03T04:13:17;101338.38;;;17.70;100.00
56392;BME280;42289;53.582;9.714;2022-08-03T04:15:46;101342.22;;;17.64;100.00
56392;BME280;42289;53.582;9.714;2022-08-03T04:18:14;101344.75;;;17.65;100.00
56392;BME280;42289;53.582;9.714;2022-08-03T04:20:46;101349.03;;;17.66;100.00
56392;BME280;42289;53.582;9.714;2022-08-03T04:23:15;101347.09;;;17.70;100.00
56392;BME280;42289;53.582;9.714;2022-08-03T04:25:43;101353.84;;;17.74;100.00
56392;BME280;42289;53.582;9.714;2022-08-03T04:28:10;101355.63;;;17.74;100.00
56392;BME280;42289;53.582;9.714;2022-08-03T04:30:38;101367.09;;;17.73;100.00
56392;BME280;42289;53.582;9.714;2022-08-03T04:33:11;101366.91;;;17.76;100.00
56392;BME280;42289;53.582;9.714;2022-08-03T04:35:39;101376.38;;;17.78;100.00
56392;BME280;42289;53.582;9.714;2022-08-03T04:38:10;101371.81;;;17.82;100.00
56392;BME280;42289;53.582;9.714;2022-08-03T04:40:40;101372.47;;;17.86;100.00
56392;BME280;42289;53.582;9.714;2022-08-03T04:43:09;101367.13;;;17.87;100.00
56392;BME280;42289;53.582;9.714;2022-08-03T04:45:37;101381.38;;;17.83;100.00
56392;BME280;42289;53.582;9.714;2022-08-03T04:48:04;101384.66;;;17.87;100.00
56392;BME280;42289;53.582;9.714;2022-08-03T04:50:31;101399.31;;;17.91;100.00
56392;BME280;42289;53.582;9.714;2022-08-03T04:52:58;101390.59;;;17.90;100.00
56392;BME280;42289;53.582;9.714;2022-08-03T04:55:27;101375.41;;;17.95;100.00
56392;BME280;42289;53.582;9.714;2022-08-03T04:57:54;101344.03;;;18.07;100.00
56392;BME280;42289;53.582;9.714;2022-08-03T05:00:21;101291.59;;;18.18;100.00
56392;BME280;42289;53.582;9.714;2022-08-03T05:02:47;101271.16;;;18.22;100.00
56392;BME280;42289;53.582;9.714;2022-08-03T05:05:14;101193.88;;;18.37;100.00
56392;BME280;42289;53.582;9.714;2022-08-03T05:07:41;101157.25;;;18.47;100.00
56392;BME280;42289;53.582;9.714;2022-08-03T05:10:09;101092.19;;;18.62;100.00
56392;BME280;42289;53.582;9.714;2022-08-03T05:12:37;101066.50;;;18.65;100.00
56392;BME280;42289;53.582;9.714;2022-08-03T05:15:04;101035.19;;;18.74;100.00
56392;BME280;42289;53.582;9.714;2022-08-03T05:20:07;101037.91;;;18.85;100.00
56392;BME280;42289;53.582;9.714;2022-08-03T05:22:33;101002.59;;;18.88;100.00
56392;BME280;42289;53.582;9.714;2022-08-03T05:25:00;100975.41;;;19.00;100.00
56392;BME280;42289;53.582;9.714;2022-08-03T05:27:27;100965.63;;;19.02;100.00
56392;BME280;42289;53.582;9.714;2022-08-03T05:29:54;100944.31;;;19.05;100.00
56392;BME280;42289;53.582;9.714;2022-08-03T05:32:21;100937.75;;;19.11;100.00
56392;BME280;42289;53.582;9.714;2022-08-03T05:34:47;100920.31;;;19.21;100.00
56392;BME280;42289;53.582;9.714;2022-08-03T05:37:14;100899.88;;;19.25;100.00
56392;BME280;42289;53.582;9.714;2022-08-03T05:39:40;100879.25;;;19.30;100.00
56392;BME280;42289;53.582;9.714;2022-08-03T05:42:07;100861.31;;;19.35;100.00
56392;BME280;42289;53.582;9.714;2022-08-03T05:44:34;100867.06;;;19.40;100.00
56392;BME280;42289;53.582;9.714;2022-08-03T05:47:04;100848.19;;;19.46;100.00
56392;BME280;42289;53.582;9.714;2022-08-03T05:49:30;100829.59;;;19.59;100.00
56392;BME280;42289;53.582;9.714;2022-08-03T05:51:56;100806.00;;;19.69;100.00
56392;BME280;42289;53.582;9.714;2022-08-03T05:54:23;100791.97;;;19.69;100.00
56392;BME280;42289;53.582;9.714;2022-08-03T05:56:49;100798.44;;;19.76;100.00
56392;BME280;42289;53.582;9.714;2022-08-03T05:59:16;100798.97;;;19.81;100.00
56392;BME280;42289;53.582;9.714;2022-08-03T06:01:42;100803.66;;;19.89;100.00
56392;BME280;42289;53.582;9.714;2022-08-03T06:04:10;100764.41;;;20.07;100.00
56392;BME280;42289;53.582;9.714;2022-08-03T06:06:36;100769.28;;;20.23;100.00
56392;BME280;42289;53.582;9.714;2022-08-03T06:09:03;100768.50;;;20.43;100.00
56392;BME280;42289;53.582;9.714;2022-08-03T06:11:29;100747.44;;;20.64;100.00
56392;BME280;42289;53.582;9.714;2022-08-03T06:13:56;100714.91;;;20.96;100.00
56392;BME280;42289;53.582;9.714;2022-08-03T06:16:22;100770.59;;;21.05;100.00
56392;BME280;42289;53.582;9.714;2022-08-03T06:18:48;100824.81;;;21.20;100.00
56392;BME280;42289;53.582;9.714;2022-08-03T06:21:16;100851.53;;;21.59;100.00
56392;BME280;42289;53.582;9.714;2022-08-03T06:23:44;100882.84;;;22.06;100.00
56392;BME280;42289;53.582;9.714;2022-08-03T06:26:12;100929.88;;;22.45;100.00
56392;BME280;42289;53.582;9.714;2022-08-03T06:28:38;100980.78;;;22.99;100.00
56392;BME280;42289;53.582;9.714;2022-08-03T06:31:05;101014.81;;;23.04;100.00
56392;BME280;42289;53.582;9.714;2022-08-03T06:33:31;101018.56;;;23.71;100.00
56392;BME280;42289;53.582;9.714;2022-08-03T06:35:58;101067.00;;;24.32;100.00
56392;BME280;42289;53.582;9.714;2022-08-03T06:38:25;101102.03;;;25.12;100.00
56392;BME280;42289;53.582;9.714;2022-08-03T06:40:53;101151.00;;;25.93;100.00
56392;BME280;42289;53.582;9.714;2022-08-03T06:43:19;101154.97;;;26.43;100.00
56392;BME280;42289;53.582;9.714;2022-08-03T06:45:46;101199.34;;;27.31;100.00
56392;BME280;42289;53.582;9.714;2022-08-03T06:48:12;101211.03;;;27.73;100.00
56392;BME280;42289;53.582;9.714;2022-08-03T06:50:40;101254.78;;;28.40;100.00
56392;BME280;42289;53.582;9.714;2022-08-03T06:53:08;101243.59;;;28.36;100.00
56392;BME280;42289;53.582;9.714;2022-08-03T06:55:36;101293.41;;;29.19;100.00
56392;BME280;42289;53.582;9.714;2022-08-03T06:58:03;101302.44;;;29.35;100.00
56392;BME280;42289;53.582;9.714;2022-08-03T07:00:29;101308.09;;;29.48;100.00
56392;BME280;42289;53.582;9.714;2022-08-03T07:02:56;101310.59;;;29.50;100.00
56392;BME280;42289;53.582;9.714;2022-08-03T07:05:22;101343.22;;;29.62;100.00
56392;BME280;42289;53.582;9.714;2022-08-03T07:07:49;101313.41;;;29.57;100.00
56392;BME280;42289;53.582;9.714;2022-08-03T07:10:15;101332.81;;;29.67;100.00
56392;BME280;42289;53.582;9.714;2022-08-03T07:12:43;101297.75;;;29.37;100.00
56392;BME280;42289;53.582;9.714;2022-08-03T07:15:10;101335.09;;;29.06;100.00
56392;BME280;42289;53.582;9.714;2022-08-03T07:17:36;101334.63;;;28.94;100.00
56392;BME280;42289;53.582;9.714;2022-08-03T07:20:05;101315.31;;;28.49;100.00
56392;BME280;42289;53.582;9.714;2022-08-03T07:22:32;101291.94;;;29.09;100.00
56392;BME280;42289;53.582;9.714;2022-08-03T07:24:59;101308.38;;;29.62;100.00
56392;BME280;42289;53.582;9.714;2022-08-03T07:27:25;101323.19;;;29.89;100.00
56392;BME280;42289;53.582;9.714;2022-08-03T07:29:54;101335.66;;;30.13;100.00
56392;BME280;42289;53.582;9.714;2022-08-03T07:32:20;101338.25;;;30.61;100.00
56392;BME280;42289;53.582;9.714;2022-08-03T07:34:47;101342.72;;;30.84;100.00
56392;BME280;42289;53.582;9.714;2022-08-03T07:37:13;101351.06;;;31.12;100.00
56392;BME280;42289;53.582;9.714;2022-08-03T07:39:40;101344.91;;;30.65;100.00
56392;BME280;42289;53.582;9.714;2022-08-03T07:42:06;101331.25;;;30.20;100.00
56392;BME280;42289;53.582;9.714;2022-08-03T07:44:33;101322.56;;;29.87;100.00
56392;BME280;42289;53.582;9.714;2022-08-03T07:47:00;101331.81;;;30.39;100.00
56392;BME280;42289;53.582;9.714;2022-08-03T07:49:27;101333.22;;;30.58;100.00
56392;BME280;42289;53.582;9.714;2022-08-03T07:51:53;101342.16;;;30.74;100.00
56392;BME280;42289;53.582;9.714;2022-08-03T07:54:33;101341.31;;;30.73;100.00
56392;BME280;42289;53.582;9.714;2022-08-03T07:57:00;101332.19;;;30.59;100.00
56392;BME280;42289;53.582;9.714;2022-08-03T07:59:26;101340.38;;;30.66;100.00
56392;BME280;42289;53.582;9.714;2022-08-03T08:01:52;101342.47;;;30.24;100.00
56392;BME280;42289;53.582;9.714;2022-08-03T08:04:21;101335.34;;;30.40;100.00
56392;BME280;42289;53.582;9.714;2022-08-03T08:06:47;101340.06;;;30.61;100.00
56392;BME280;42289;53.582;9.714;2022-08-03T08:09:14;101351.19;;;30.26;100.00
56392;BME280;42289;53.582;9.714;2022-08-03T08:11:40;101327.59;;;29.74;100.00
56392;BME280;42289;53.582;9.714;2022-08-03T08:14:07;101332.91;;;30.22;100.00
56392;BME280;42289;53.582;9.714;2022-08-03T08:16:33;101342.16;;;30.42;100.00
56392;BME280;42289;53.582;9.714;2022-08-03T08:19:00;101334.75;;;30.52;100.00
56392;BME280;42289;53.582;9.714;2022-08-03T08:21:28;101352.66;;;31.07;100.00
56392;BME280;42289;53.582;9.714;2022-08-03T08:23:54;101358.06;;;31.36;100.00
56392;BME280;42289;53.582;9.714;2022-08-03T08:26:21;101361.78;;;31.35;100.00
56392;BME280;42289;53.582;9.714;2022-08-03T08:28:47;101341.84;;;31.30;100.00
56392;BME280;42289;53.582;9.714;2022-08-03T08:31:14;101342.78;;;31.22;100.00
56392;BME280;42289;53.582;9.714;2022-08-03T08:33:41;101351.81;;;31.06;100.00
56392;BME280;42289;53.582;9.714;2022-08-03T08:36:07;101350.38;;;30.95;100.00
56392;BME280;42289;53.582;9.714;2022-08-03T08:38:35;101332.09;;;30.52;100.00
56392;BME280;42289;53.582;9.714;2022-08-03T08:41:01;101332.69;;;30.31;100.00
56392;BME280;42289;53.582;9.714;2022-08-03T08:43:28;101341.28;;;30.27;100.00
56392;BME280;42289;53.582;9.714;2022-08-03T08:45:56;101352.25;;;30.40;100.00
56392;BME280;42289;53.582;9.714;2022-08-03T08:48:25;101324.44;;;30.64;100.00
56392;BME280;42289;53.582;9.714;2022-08-03T08:50:54;101334.56;;;30.77;100.00
56392;BME280;42289;53.582;9.714;2022-08-03T08:53:22;101344.59;;;30.83;100.00
56392;BME280;42289;53.582;9.714;2022-08-03T08:55:54;101320.72;;;30.50;100.00
56392;BME280;42289;53.582;9.714;2022-08-03T08:58:24;101337.84;;;30.41;100.00
56392;BME280;42289;53.582;9.714;2022-08-03T09:00:51;101334.81;;;30.67;100.00
56392;BME280;42289;53.582;9.714;2022-08-03T09:03:17;101349.69;;;30.55;100.00
56392;BME280;42289;53.582;9.714;2022-08-03T09:05:44;101322.09;;;30.46;100.00
56392;BME280;42289;53.582;9.714;2022-08-03T09:08:11;101320.25;;;30.39;100.00
56392;BME280;42289;53.582;9.714;2022-08-03T09:10:37;101339.56;;;30.02;100.00
56392;BME280;42289;53.582;9.714;2022-08-03T09:13:06;101342.50;;;30.70;100.00
56392;BME280;42289;53.582;9.714;2022-08-03T09:15:33;101335.59;;;30.53;100.00
56392;BME280;42289;53.582;9.714;2022-08-03T09:18:00;101341.44;;;30.57;100.00
56392;BME280;42289;53.582;9.714;2022-08-03T09:20:29;101309.97;;;30.19;100.00
56392;BME280;42289;53.582;9.714;2022-08-03T09:22:57;101320.16;;;29.92;100.00
56392;BME280;42289;53.582;9.714;2022-08-03T09:25:29;101335.25;;;29.93;100.00
56392;BME280;42289;53.582;9.714;2022-08-03T09:28:04;101331.44;;;30.50;100.00
56392;BME280;42289;53.582;9.714;2022-08-03T09:30:33;101330.47;;;29.64;100.00
56392;BME280;42289;53.582;9.714;2022-08-03T09:33:00;101319.19;;;29.37;100.00
56392;BME280;42289;53.582;9.714;2022-08-03T09:35:27;101313.16;;;29.27;100.00
56392;BME280;42289;53.582;9.714;2022-08-03T09:38:08;101293.06;;;29.39;100.00
56392;BME280;42289;53.582;9.714;2022-08-03T09:40:35;101317.88;;;28.92;100.00
56392;BME280;42289;53.582;9.714;2022-08-03T09:43:01;101311.84;;;28.98;100.00
56392;BME280;42289;53.582;9.714;2022-08-03T09:45:28;101306.66;;;29.05;100.00
56392;BME280;42289;53.582;9.714;2022-08-03T09:47:56;101301.16;;;28.73;100.00
56392;BME280;42289;53.582;9.714;2022-08-03T09:50:24;101297.47;;;28.82;100.00
56392;BME280;42289;53.582;9.714;2022-08-03T09:52:50;101270.34;;;29.02;100.00
56392;BME280;42289;53.582;9.714;2022-08-03T09:55:17;101283.00;;;29.25;100.00
56392;BME280;42289;53.582;9.714;2022-08-03T09:57:44;101272.03;;;28.53;100.00
56392;BME280;42289;53.582;9.714;2022-08-03T10:00:12;101269.31;;;28.29;100.00
56392;BME280;42289;53.582;9.714;2022-08-03T10:02:41;101281.69;;;29.12;100.00
56392;BME280;42289;53.582;9.714;2022-08-03T10:05:11;101277.00;;;29.31;100.00
56392;BME280;42289;53.582;9.714;2022-08-03T10:07:45;101305.53;;;29.63;100.00
56392;BME280;42289;53.582;9.714;2022-08-03T10:10:12;101288.06;;;29.76;100.00
56392;BME280;42289;53.582;9.714;2022-08-03T10:12:39;101296.41;;;29.89;100.00
56392;BME280;42289;53.582;9.714;2022-08-03T10:15:07;101291.44;;;29.69;100.00
56392;BME280;42289;53.582;9.714;2022-08-03T10:17:34;101301.63;;;29.74;100.00
56392;BME280;42289;53.582;9.714;2022-08-03T10:20:01;101291.03;;;29.89;100.00
56392;BME280;42289;53.582;9.714;2022-08-03T10:22:32;101292.88;;;30.20;100.00
56392;BME280;42289;53.582;9.714;2022-08-03T10:25:02;101290.81;;;29.99;100.00
56392;BME280;42289;53.582;9.714;2022-08-03T10:27:31;101277.38;;;29.67;100.00
56392;BME280;42289;53.582;9.714;2022-08-03T10:30:01;101300.09;;;29.07;100.00
56392;BME280;42289;53.582;9.714;2022-08-03T10:32:31;101284.59;;;28.86;100.00
56392;BME280;42289;53.582;9.714;2022-08-03T10:35:04;101263.16;;;29.02;100.00
56392;BME280;42289;53.582;9.714;2022-08-03T10:37:39;101280.72;;;28.56;100.00
56392;BME280;42289;53.582;9.714;2022-08-03T10:40:09;101267.16;;;28.49;100.00
56392;BME280;42289;53.582;9.714;2022-08-03T10:42:37;101272.16;;;29.10;100.00
56392;BME280;42289;53.582;9.714;2022-08-03T10:45:11;101261.69;;;28.75;100.00
56392;BME280;42289;53.582;9.714;2022-08-03T10:47:39;101267.84;;;28.43;100.00
56392;BME280;42289;53.582;9.714;2022-08-03T10:50:06;101241.59;;;28.30;100.00
56392;BME280;42289;53.582;9.714;2022-08-03T10:52:35;101251.44;;;28.21;100.00
56392;BME280;42289;53.582;9.714;2022-08-03T10:55:01;101237.91;;;28.23;100.00
56392;BME280;42289;53.582;9.714;2022-08-03T10:57:48;101258.94;;;28.01;100.00
56392;BME280;42289;53.582;9.714;2022-08-03T11:00:16;101210.53;;;28.37;100.00
56392;BME280;42289;53.582;9.714;2022-08-03T11:03:04;101258.56;;;29.44;100.00
56392;BME280;42289;53.582;9.714;2022-08-03T11:05:32;101274.59;;;29.52;100.00
56392;BME280;42289;53.582;9.714;2022-08-03T11:08:26;101264.94;;;29.35;100.00
56392;BME280;42289;53.582;9.714;2022-08-03T11:10:56;101286.41;;;29.10;100.00
56392;BME280;42289;53.582;9.714;2022-08-03T11:13:24;101277.31;;;28.20;100.00
56392;BME280;42289;53.582;9.714;2022-08-03T11:15:54;101245.50;;;27.93;100.00
56392;BME280;42289;53.582;9.714;2022-08-03T11:18:21;101201.72;;;27.77;100.00
56392;BME280;42289;53.582;9.714;2022-08-03T11:20:50;101232.00;;;27.94;100.00
56392;BME280;42289;53.582;9.714;2022-08-03T11:23:19;101232.06;;;28.27;100.00
56392;BME280;42289;53.582;9.714;2022-08-03T11:26:09;101220.22;;;27.28;100.00
56392;BME280;42289;53.582;9.714;2022-08-03T11:31:44;101208.66;;;28.38;100.00
56392;BME280;42289;53.582;9.714;2022-08-03T11:34:15;101238.13;;;27.78;100.00
56392;BME280;42289;53.582;9.714;2022-08-03T11:37:20;101229.31;;;27.43;100.00
56392;BME280;42289;53.582;9.714;2022-08-03T11:39:49;101221.16;;;26.92;100.00
56392;BME280;42289;53.582;9.714;2022-08-03T11:42:42;101155.66;;;26.98;100.00
56392;BME280;42289;53.582;9.714;2022-08-03T11:45:10;101217.06;;;27.67;100.00
56392;BME280;42289;53.582;9.714;2022-08-03T11:47:38;101171.75;;;27.49;100.00
56392;BME280;42289;53.582;9.714;2022-08-03T11:50:06;101185.84;;;27.67;100.00
56392;BME280;42289;53.582;9.714;2022-08-03T11:52:34;101185.22;;;27.82;100.00
56392;BME280;42289;53.582;9.714;2022-08-03T11:55:01;101206.44;;;28.00;100.00
56392;BME280;42289;53.582;9.714;2022-08-03T11:57:28;101210.94;;;27.91;100.00
56392;BME280;42289;53.582;9.714;2022-08-03T11:59:57;101247.16;;;28.69;100.00
56392;BME280;42289;53.582;9.714;2022-08-03T12:02:26;101264.34;;;28.83;100.00
56392;BME280;42289;53.582;9.714;2022-08-03T12:04:54;101227.72;;;28.76;100.00
56392;BME280;42289;53.582;9.714;2022-08-03T12:07:22;101233.41;;;28.31;100.00
56392;BME280;42289;53.582;9.714;2022-08-03T12:10:07;101217.00;;;28.26;100.00
56392;BME280;42289;53.582;9.714;2022-08-03T12:12:35;101227.50;;;28.03;100.00
56392;BME280;42289;53.582;9.714;2022-08-03T12:15:06;101226.69;;;27.60;100.00
56392;BME280;42289;53.582;9.714;2022-08-03T12:17:33;101197.16;;;27.69;100.00
56392;BME280;42289;53.582;9.714;2022-08-03T12:19:59;101207.00;;;27.61;100.00
56392;BME280;42289;53.582;9.714;2022-08-03T12:22:30;101207.81;;;28.20;100.00
56392;BME280;42289;53.582;9.714;2022-08-03T12:24:57;101236.16;;;27.97;100.00
56392;BME280;42289;53.582;9.714;2022-08-03T12:27:24;101219.50;;;28.03;100.00
56392;BME280;42289;53.582;9.714;2022-08-03T12:29:54;101218.38;;;28.30;100.00
56392;BME280;42289;53.582;9.714;2022-08-03T12:32:22;101223.38;;;27.31;100.00
56392;BME280;42289;53.582;9.714;2022-08-03T12:34:50;101182.19;;;26.73;100.00
56392;BME280;42289;53.582;9.714;2022-08-03T12:37:17;101180.69;;;26.34;100.00
56392;BME280;42289;53.582;9.714;2022-08-03T12:39:49;101175.88;;;26.12;100.00
56392;BME280;42289;53.582;9.714;2022-08-03T12:42:16;101153.47;;;26.23;100.00
56392;BME280;42289;53.582;9.714;2022-08-03T12:44:42;101156.03;;;25.96;100.00
56392;BME280;42289;53.582;9.714;2022-08-03T12:47:10;101154.75;;;25.37;100.00
56392;BME280;42289;53.582;9.714;2022-08-03T12:49:46;101141.16;;;24.92;100.00
56392;BME280;42289;53.582;9.714;2022-08-03T12:52:13;101107.09;;;25.06;100.00
56392;BME280;42289;53.582;9.714;2022-08-03T12:54:40;101117.00;;;25.69;100.00